< Cyclone 200803 2008 Season Cyclone 200808 >
Cyclone 200806 (Melanie)
General InformationTrack Information on Google MapsDetailed Wind InformationList of All Images || ResourceGoogle EarthGE AnimationAtom FeedGeoJSON
Detalied Best Track (Time Zone = UTC)
Year Month Day Hour Lat. Long. Pressure (hPa) Wind (kt) Class Image Chart
2007 12 26 06 -9.9 117.0 998 0 0 Image --
2007 12 26 12 -10.7 117.0 998 0 0 Image --
2007 12 26 18 -11.4 117.0 998 0 0 Image --
2007 12 27 00 -12.1 117.0 998 20 2 Image --
2007 12 27 06 -12.9 117.1 998 20 2 Image --
2007 12 27 12 -13.3 117.4 994 25 2 Image --
2007 12 27 18 -13.6 117.7 990 30 2 Image --
2007 12 28 00 -13.8 117.8 986 35 3 Image --
2007 12 28 06 -14.3 117.9 982 40 3 Image --
2007 12 28 12 -15.0 118.0 976 45 3 Image --
2007 12 28 18 -16.2 117.9 970 50 4 Image --
2007 12 29 00 -16.6 117.6 962 55 4 Image --
2007 12 29 06 -17.2 116.8 962 60 4 Image --
2007 12 29 12 -17.6 116.0 962 60 4 Image --
2007 12 29 18 -17.9 115.0 964 55 4 Image --
2007 12 30 00 -18.3 113.9 964 55 4 Image --
2007 12 30 06 -18.6 113.2 964 55 4 Image --
2007 12 30 12 -18.7 112.8 964 55 4 Image --
2007 12 30 18 -18.7 112.4 972 50 4 Image --
2007 12 31 00 -18.7 112.0 972 50 4 Image --
2007 12 31 06 -18.7 111.7 976 45 3 Image --
2007 12 31 12 -18.9 111.3 976 45 3 Image --
2007 12 31 18 -19.1 111.1 984 40 3 Image --
2008 1 1 00 -19.6 110.7 984 40 3 Image --
2008 1 1 06 -20.3 110.4 984 40 3 Image --
2008 1 1 12 -21.2 110.0 986 35 3 Image --
2008 1 1 18 -21.8 109.3 990 30 2 Image --
2008 1 2 00 -22.4 108.4 992 25 2 Image --
2008 1 2 06 -22.8 107.8 992 25 2 Image --
< Cyclone 200803 2008 Season Cyclone 200808 >

Help